createdAt,value
2017-12-31T00:00:21.887Z,11.00
2017-12-31T00:01:21.880Z,11.20
2017-12-31T00:02:21.876Z,9.60
2017-12-31T00:03:21.878Z,10.00
2017-12-31T00:04:21.872Z,9.80
2017-12-31T00:05:21.866Z,11.90
2017-12-31T00:06:21.871Z,9.90
2017-12-31T00:07:21.863Z,10.50
2017-12-31T00:08:21.863Z,11.10
2017-12-31T00:09:21.858Z,9.60
2017-12-31T00:10:21.854Z,11.00
2017-12-31T00:11:21.861Z,11.00
2017-12-31T00:12:21.849Z,9.00
2017-12-31T00:13:21.847Z,8.80
2017-12-31T00:14:21.843Z,10.50
2017-12-31T00:15:21.842Z,8.50
2017-12-31T00:16:21.839Z,11.30
2017-12-31T00:17:21.839Z,10.20
2017-12-31T00:18:21.830Z,8.90
2017-12-31T00:19:21.832Z,11.10
2017-12-31T00:20:21.830Z,9.50
2017-12-31T00:21:21.826Z,8.30
2017-12-31T00:22:21.825Z,9.50
2017-12-31T00:23:21.828Z,10.40
2017-12-31T00:24:21.809Z,11.50
2017-12-31T00:25:21.811Z,11.40
2017-12-31T00:26:21.802Z,9.30
2017-12-31T00:27:21.805Z,10.70
2017-12-31T00:28:21.804Z,11.00
2017-12-31T00:29:21.798Z,10.90
2017-12-31T00:30:21.798Z,13.00
2017-12-31T00:31:21.795Z,11.90
2017-12-31T00:32:21.793Z,11.80
2017-12-31T00:33:21.787Z,8.60
2017-12-31T00:34:21.789Z,8.50
2017-12-31T00:35:21.783Z,9.10
2017-12-31T00:36:21.781Z,11.60
2017-12-31T00:37:21.774Z,10.50
2017-12-31T00:38:21.771Z,11.10
2017-12-31T00:39:21.779Z,11.00
2017-12-31T00:40:21.768Z,9.70
2017-12-31T00:41:21.764Z,8.10
2017-12-31T00:42:21.761Z,9.00
2017-12-31T00:43:21.761Z,10.20
2017-12-31T00:44:21.757Z,6.90
2017-12-31T00:45:21.755Z,8.00
2017-12-31T00:46:21.744Z,8.00
2017-12-31T00:47:21.747Z,9.80
2017-12-31T00:48:21.744Z,9.40
2017-12-31T00:49:21.736Z,7.60
2017-12-31T00:50:21.737Z,8.70
2017-12-31T00:51:21.733Z,8.30
2017-12-31T00:52:21.732Z,7.60
2017-12-31T00:53:21.728Z,8.30
2017-12-31T00:54:21.725Z,9.50
2017-12-31T00:55:21.722Z,8.90
2017-12-31T00:56:21.721Z,8.10
2017-12-31T00:57:21.717Z,10.80
2017-12-31T00:58:21.710Z,9.20
2017-12-31T00:59:21.710Z,10.50
2017-12-31T01:00:21.708Z,10.50
2017-12-31T01:01:21.704Z,9.40
2017-12-31T01:02:21.701Z,7.00
2017-12-31T01:03:21.695Z,9.40
2017-12-31T01:04:21.698Z,7.30
2017-12-31T01:05:21.692Z,9.00
2017-12-31T01:06:21.689Z,7.70
2017-12-31T01:07:21.686Z,8.10
2017-12-31T01:08:21.682Z,8.80
2017-12-31T01:09:21.677Z,8.40
2017-12-31T01:10:21.676Z,8.90
2017-12-31T01:11:21.675Z,8.50
2017-12-31T01:12:21.734Z,9.30
2017-12-31T01:13:21.666Z,8.30
2017-12-31T01:14:21.665Z,8.80
2017-12-31T01:15:21.666Z,8.40
2017-12-31T01:16:21.665Z,10.20
2017-12-31T01:17:21.655Z,7.60
2017-12-31T01:18:21.654Z,7.20
2017-12-31T01:19:21.645Z,8.70
2017-12-31T01:20:21.643Z,7.80
2017-12-31T01:21:21.638Z,7.50
2017-12-31T01:22:21.642Z,8.30
2017-12-31T01:23:21.634Z,9.20
2017-12-31T01:24:21.641Z,8.10
2017-12-31T01:25:21.634Z,8.90
2017-12-31T01:26:21.626Z,8.90
2017-12-31T01:27:21.624Z,9.70
2017-12-31T01:28:21.621Z,10.90
2017-12-31T01:29:21.614Z,7.10
2017-12-31T01:30:21.614Z,9.10
2017-12-31T01:31:21.612Z,8.30
2017-12-31T01:32:21.619Z,9.20
2017-12-31T01:33:21.605Z,9.90
2017-12-31T01:34:21.601Z,8.50
2017-12-31T01:35:21.598Z,11.00
2017-12-31T01:36:21.596Z,9.10
2017-12-31T01:37:21.591Z,10.00
2017-12-31T01:38:21.590Z,10.70
2017-12-31T01:39:21.584Z,9.90
2017-12-31T01:40:21.581Z,9.70
2017-12-31T01:41:21.581Z,11.80
2017-12-31T01:42:21.578Z,8.80
2017-12-31T01:43:21.576Z,9.30
2017-12-31T01:44:21.569Z,12.50
2017-12-31T01:45:21.566Z,11.00
2017-12-31T01:46:21.573Z,10.20
2017-12-31T01:47:21.560Z,10.40
2017-12-31T01:48:21.557Z,9.20
2017-12-31T01:49:21.555Z,10.50
2017-12-31T01:50:21.549Z,12.20
2017-12-31T01:51:21.547Z,9.70
2017-12-31T01:52:21.545Z,9.70
2017-12-31T01:53:21.540Z,9.80
2017-12-31T01:54:21.538Z,10.70
2017-12-31T01:55:21.534Z,9.40
2017-12-31T01:56:21.533Z,10.50
2017-12-31T01:57:21.528Z,11.90
2017-12-31T01:58:21.525Z,8.60
2017-12-31T01:59:21.524Z,8.80
2017-12-31T02:00:21.546Z,10.80
2017-12-31T02:01:21.523Z,9.40
2017-12-31T02:02:21.512Z,11.10
2017-12-31T02:03:21.508Z,11.90
2017-12-31T02:04:21.504Z,10.70
2017-12-31T02:05:21.502Z,11.30
2017-12-31T02:06:21.499Z,10.50
2017-12-31T02:07:21.497Z,12.30
2017-12-31T02:08:21.492Z,12.10
2017-12-31T02:09:21.489Z,10.10
2017-12-31T02:10:21.485Z,12.10
2017-12-31T02:11:21.480Z,12.20
2017-12-31T02:12:21.478Z,12.40
2017-12-31T02:13:21.474Z,13.10
2017-12-31T02:14:21.473Z,11.40
2017-12-31T02:15:21.469Z,13.50
2017-12-31T02:16:21.467Z,11.10
2017-12-31T02:17:21.458Z,10.80
2017-12-31T02:18:21.463Z,10.90
2017-12-31T02:19:21.532Z,13.10
2017-12-31T02:20:21.493Z,12.40
2017-12-31T02:21:21.446Z,11.00
2017-12-31T02:22:21.448Z,11.10
2017-12-31T02:23:21.442Z,10.00
2017-12-31T02:24:21.439Z,11.70
2017-12-31T02:25:21.434Z,11.00
2017-12-31T02:26:21.432Z,10.90
2017-12-31T02:27:21.426Z,10.30
2017-12-31T02:28:21.431Z,13.50
2017-12-31T02:29:21.417Z,10.90
2017-12-31T02:30:21.415Z,12.40
2017-12-31T02:31:21.410Z,12.60
2017-12-31T02:32:21.411Z,13.90
2017-12-31T02:33:21.405Z,13.60
2017-12-31T02:34:21.401Z,13.50
2017-12-31T02:35:21.398Z,11.30
2017-12-31T02:36:21.394Z,13.50
2017-12-31T02:37:21.389Z,11.80
2017-12-31T02:38:21.384Z,15.50
2017-12-31T02:39:21.384Z,12.00
2017-12-31T02:40:21.381Z,13.50
2017-12-31T02:41:21.374Z,12.90
2017-12-31T02:42:21.371Z,13.50
2017-12-31T02:43:21.372Z,13.30
2017-12-31T02:44:21.368Z,12.90
2017-12-31T02:45:21.362Z,14.20
2017-12-31T02:46:21.357Z,13.50
2017-12-31T02:47:21.355Z,11.30
2017-12-31T02:48:21.347Z,16.10
2017-12-31T02:49:21.350Z,13.50
2017-12-31T02:50:21.345Z,11.50
2017-12-31T02:51:21.338Z,12.10
2017-12-31T02:52:21.337Z,10.80
2017-12-31T02:53:21.335Z,12.60
2017-12-31T02:54:21.330Z,13.10
2017-12-31T02:55:21.325Z,13.30
2017-12-31T02:56:21.321Z,16.40
2017-12-31T02:57:21.326Z,12.50
2017-12-31T02:58:21.314Z,14.90
2017-12-31T02:59:21.311Z,14.00
2017-12-31T03:00:21.309Z,13.10
2017-12-31T03:01:21.302Z,12.70
2017-12-31T03:02:21.301Z,16.50
2017-12-31T03:03:21.296Z,12.40
2017-12-31T03:04:21.296Z,13.40
2017-12-31T03:05:21.295Z,11.70
2017-12-31T03:06:21.287Z,13.50
2017-12-31T03:07:21.283Z,15.20
2017-12-31T03:08:21.279Z,13.50
2017-12-31T03:09:21.276Z,14.70
2017-12-31T03:10:21.267Z,15.70
2017-12-31T03:11:21.320Z,15.00
2017-12-31T03:12:21.265Z,14.40
2017-12-31T03:13:21.270Z,13.60
2017-12-31T03:14:21.261Z,12.70
2017-12-31T03:15:21.260Z,14.80
2017-12-31T03:16:21.255Z,13.60
2017-12-31T03:17:21.246Z,17.00
2017-12-31T03:18:21.254Z,16.50
2017-12-31T03:19:21.242Z,13.80
2017-12-31T03:20:21.235Z,14.50
2017-12-31T03:21:21.236Z,17.50
2017-12-31T03:22:21.227Z,13.60
2017-12-31T03:23:21.223Z,14.10
2017-12-31T03:24:21.222Z,14.50
2017-12-31T03:25:21.214Z,12.90
2017-12-31T03:26:21.220Z,16.30
2017-12-31T03:27:21.206Z,13.80
2017-12-31T03:28:21.205Z,15.90
2017-12-31T03:29:21.197Z,15.00
2017-12-31T03:30:21.194Z,14.40
2017-12-31T03:31:21.198Z,14.30
2017-12-31T03:32:21.187Z,14.00
2017-12-31T03:33:21.184Z,15.20
2017-12-31T03:34:21.178Z,14.50
2017-12-31T03:35:21.205Z,15.70
2017-12-31T03:36:21.173Z,14.10
2017-12-31T03:37:21.166Z,16.40
2017-12-31T03:38:21.162Z,17.00
2017-12-31T03:39:21.160Z,16.80
2017-12-31T03:40:21.153Z,15.00
2017-12-31T03:41:21.151Z,18.40
2017-12-31T03:42:21.147Z,14.30
2017-12-31T03:43:21.148Z,16.40
2017-12-31T03:44:21.139Z,16.90
2017-12-31T03:45:21.138Z,16.50
2017-12-31T03:46:21.132Z,17.00
2017-12-31T03:47:21.131Z,17.60
2017-12-31T03:48:21.126Z,14.50
2017-12-31T03:49:21.112Z,16.70
2017-12-31T03:50:21.115Z,13.90
2017-12-31T03:51:21.110Z,17.60
2017-12-31T03:52:21.105Z,15.10
2017-12-31T03:53:21.105Z,19.00
2017-12-31T03:54:21.097Z,16.90
2017-12-31T03:55:21.094Z,16.60
2017-12-31T03:56:21.091Z,16.10
2017-12-31T03:57:21.083Z,17.70
2017-12-31T03:58:21.076Z,14.90
2017-12-31T03:59:21.077Z,19.80
2017-12-31T04:00:21.074Z,16.70
2017-12-31T04:01:21.090Z,16.30
2017-12-31T04:02:21.069Z,18.70
2017-12-31T04:03:21.094Z,17.30
2017-12-31T04:04:21.061Z,14.90
2017-12-31T04:05:21.054Z,18.90
2017-12-31T04:06:21.049Z,20.80
2017-12-31T04:07:21.042Z,18.10
2017-12-31T04:08:21.039Z,17.50
2017-12-31T04:09:21.059Z,18.20
2017-12-31T04:10:21.032Z,16.80
2017-12-31T04:11:21.027Z,18.50
2017-12-31T04:12:21.021Z,19.50
2017-12-31T04:13:21.019Z,18.90
2017-12-31T04:14:21.015Z,14.60
2017-12-31T04:15:21.009Z,18.30
2017-12-31T04:16:21.007Z,19.70
2017-12-31T04:17:21.000Z,18.60
2017-12-31T04:18:20.994Z,18.90
2017-12-31T04:19:20.993Z,16.60
2017-12-31T04:20:20.992Z,18.80
2017-12-31T04:21:20.985Z,15.40
2017-12-31T04:22:20.981Z,18.40
2017-12-31T04:23:20.987Z,18.40
2017-12-31T04:24:21.009Z,18.50
2017-12-31T04:25:20.971Z,18.80
2017-12-31T04:26:20.965Z,20.10
2017-12-31T04:27:20.977Z,18.70
2017-12-31T04:28:20.957Z,18.70
2017-12-31T04:29:20.951Z,18.50
2017-12-31T04:30:20.947Z,20.00
2017-12-31T04:31:20.943Z,17.80
2017-12-31T04:32:20.941Z,19.40
2017-12-31T04:33:20.937Z,19.70
2017-12-31T04:34:20.930Z,25.10
2017-12-31T04:35:20.932Z,19.50
2017-12-31T04:36:20.918Z,20.60
2017-12-31T04:37:20.916Z,21.30
2017-12-31T04:38:20.912Z,18.90
2017-12-31T04:39:20.910Z,22.50
2017-12-31T04:40:20.913Z,20.20
2017-12-31T04:41:20.901Z,18.40
2017-12-31T04:42:20.898Z,18.80
2017-12-31T04:43:20.893Z,19.30
2017-12-31T04:44:20.888Z,18.10
2017-12-31T04:45:20.883Z,20.00
2017-12-31T04:46:20.880Z,21.60
2017-12-31T04:47:20.877Z,18.90
2017-12-31T04:48:20.879Z,23.20
2017-12-31T04:49:20.874Z,20.10
2017-12-31T04:50:20.864Z,21.10
2017-12-31T04:51:20.862Z,21.30
2017-12-31T04:52:20.859Z,21.10
2017-12-31T04:53:20.850Z,18.70
2017-12-31T04:54:20.846Z,19.10
2017-12-31T04:55:20.841Z,17.80
2017-12-31T04:56:20.836Z,19.40
2017-12-31T04:57:20.834Z,22.50
2017-12-31T04:58:20.830Z,18.40
2017-12-31T04:59:20.834Z,20.40
2017-12-31T05:00:20.823Z,21.00
2017-12-31T05:01:20.819Z,20.70
2017-12-31T05:02:20.814Z,18.70
2017-12-31T05:03:20.812Z,19.60
2017-12-31T05:04:20.806Z,20.30
2017-12-31T05:05:20.801Z,18.80
2017-12-31T05:06:20.794Z,20.80
2017-12-31T05:07:20.792Z,22.20
2017-12-31T05:08:20.794Z,20.70
2017-12-31T05:09:20.784Z,22.40
2017-12-31T05:10:20.785Z,24.50
2017-12-31T05:11:20.780Z,21.60
2017-12-31T05:12:20.771Z,19.50
2017-12-31T05:13:20.762Z,19.90
2017-12-31T05:14:20.767Z,22.50
2017-12-31T05:15:20.759Z,19.30
2017-12-31T05:16:20.755Z,18.10
2017-12-31T05:17:20.750Z,22.10
2017-12-31T05:18:20.752Z,23.90
2017-12-31T05:19:20.744Z,19.20
2017-12-31T05:20:20.738Z,22.40
2017-12-31T05:21:20.731Z,19.90
2017-12-31T05:22:20.729Z,21.70
2017-12-31T05:23:20.778Z,21.90
2017-12-31T05:24:20.722Z,19.30
2017-12-31T05:25:20.716Z,18.60
2017-12-31T05:26:20.713Z,21.60
2017-12-31T05:27:20.707Z,19.80
2017-12-31T05:28:20.699Z,20.60
2017-12-31T05:29:20.699Z,21.80
2017-12-31T05:30:20.690Z,22.20
2017-12-31T05:31:20.692Z,22.50
2017-12-31T05:32:20.683Z,19.80
2017-12-31T05:33:20.680Z,20.80
2017-12-31T05:34:20.677Z,18.80
2017-12-31T05:35:20.674Z,22.00
2017-12-31T05:36:20.671Z,19.30
2017-12-31T05:37:20.665Z,22.30
2017-12-31T05:38:20.666Z,22.90
2017-12-31T05:39:20.658Z,18.20
2017-12-31T05:40:20.653Z,22.20
2017-12-31T05:41:20.650Z,23.30
2017-12-31T05:42:20.645Z,19.80
2017-12-31T05:43:20.637Z,23.10
2017-12-31T05:44:20.635Z,24.60
2017-12-31T05:45:20.629Z,28.30
2017-12-31T05:46:20.626Z,18.60
2017-12-31T05:47:20.626Z,24.20
2017-12-31T05:48:20.636Z,19.20
2017-12-31T05:49:20.613Z,20.40
2017-12-31T05:50:20.610Z,24.60
2017-12-31T05:51:20.605Z,18.10
2017-12-31T05:52:20.602Z,20.70
2017-12-31T05:53:20.598Z,22.30
2017-12-31T05:54:20.592Z,21.70
2017-12-31T05:55:20.586Z,21.00
2017-12-31T05:56:20.585Z,26.80
2017-12-31T05:57:20.579Z,18.30
2017-12-31T05:58:20.578Z,22.20
2017-12-31T05:59:20.572Z,21.80
2017-12-31T06:00:20.569Z,23.40
2017-12-31T06:01:20.564Z,23.00
2017-12-31T06:02:20.558Z,22.70
2017-12-31T06:03:20.559Z,20.30
2017-12-31T06:04:20.545Z,20.50
2017-12-31T06:05:20.846Z,24.50
2017-12-31T06:06:20.547Z,22.50
2017-12-31T06:07:20.536Z,20.40
2017-12-31T06:08:20.531Z,21.20
2017-12-31T06:09:20.522Z,24.30
2017-12-31T06:10:20.549Z,22.10
2017-12-31T06:11:20.520Z,25.10
2017-12-31T06:12:20.512Z,23.20
2017-12-31T06:13:20.510Z,24.50
2017-12-31T06:14:20.506Z,21.60
2017-12-31T06:15:20.504Z,20.60
2017-12-31T06:16:20.497Z,19.60
2017-12-31T06:17:20.494Z,20.90
2017-12-31T06:18:20.488Z,21.10
2017-12-31T06:19:20.483Z,26.40
2017-12-31T06:20:20.480Z,26.50
2017-12-31T06:21:20.477Z,24.80
2017-12-31T06:22:20.471Z,20.70
2017-12-31T06:23:20.465Z,23.50
2017-12-31T06:24:20.461Z,23.90
2017-12-31T06:25:20.456Z,26.60
2017-12-31T06:26:20.453Z,25.90
2017-12-31T06:27:20.450Z,20.80
2017-12-31T06:28:20.441Z,25.70
2017-12-31T06:29:20.437Z,21.60
2017-12-31T06:30:20.432Z,23.80
2017-12-31T06:31:20.432Z,25.70
2017-12-31T06:32:20.430Z,22.60
2017-12-31T06:33:20.422Z,23.90
2017-12-31T06:34:20.417Z,24.00
2017-12-31T06:35:20.414Z,21.30
2017-12-31T06:36:20.410Z,22.00
2017-12-31T06:37:20.404Z,23.80
2017-12-31T06:38:20.394Z,21.10
2017-12-31T06:39:20.400Z,24.30
2017-12-31T06:40:20.393Z,22.90
2017-12-31T06:41:20.392Z,24.60
2017-12-31T06:42:20.387Z,20.70
2017-12-31T06:43:20.400Z,22.10
2017-12-31T06:44:20.378Z,22.50
2017-12-31T06:45:20.368Z,26.10
2017-12-31T06:46:20.359Z,23.10
2017-12-31T06:47:20.360Z,23.30
2017-12-31T06:48:20.354Z,26.40
2017-12-31T06:49:20.352Z,22.80
2017-12-31T06:50:20.351Z,25.20
2017-12-31T06:51:20.350Z,23.30
2017-12-31T06:52:20.342Z,22.70
2017-12-31T06:53:20.336Z,25.70
2017-12-31T06:54:20.327Z,26.20
2017-12-31T06:55:20.320Z,26.80
2017-12-31T06:56:20.319Z,24.20
2017-12-31T06:57:20.314Z,28.20
2017-12-31T06:58:20.311Z,23.10
2017-12-31T06:59:20.306Z,22.90
2017-12-31T07:00:20.302Z,24.20
2017-12-31T07:01:20.305Z,21.70
2017-12-31T07:02:20.291Z,26.00
2017-12-31T07:03:20.293Z,23.90
2017-12-31T07:04:20.283Z,23.40
2017-12-31T07:05:20.278Z,22.50
2017-12-31T07:06:20.273Z,22.10
2017-12-31T07:07:20.269Z,26.20
2017-12-31T07:08:20.266Z,22.30
2017-12-31T07:09:20.260Z,20.60
2017-12-31T07:10:20.264Z,20.80
2017-12-31T07:11:20.250Z,27.40
2017-12-31T07:12:20.246Z,24.60
2017-12-31T07:13:20.240Z,25.30
2017-12-31T07:14:20.235Z,23.80
2017-12-31T07:15:20.236Z,24.30
2017-12-31T07:16:20.230Z,21.40
2017-12-31T07:17:20.223Z,28.60
2017-12-31T07:18:20.224Z,26.70
2017-12-31T07:19:20.221Z,20.00
2017-12-31T07:20:20.215Z,23.70
2017-12-31T07:21:20.208Z,25.80
2017-12-31T07:22:20.204Z,22.90
2017-12-31T07:23:20.197Z,20.10
2017-12-31T07:24:20.191Z,23.10
2017-12-31T07:25:20.190Z,23.40
2017-12-31T07:26:20.183Z,26.20
2017-12-31T07:27:20.181Z,22.50
2017-12-31T07:28:20.178Z,26.40
2017-12-31T07:29:20.171Z,27.50
2017-12-31T07:30:20.165Z,25.00
2017-12-31T07:31:20.160Z,24.30
2017-12-31T07:32:20.155Z,26.20
2017-12-31T07:33:20.153Z,24.30
2017-12-31T07:34:20.151Z,23.40
2017-12-31T07:35:20.144Z,22.40
2017-12-31T07:36:20.140Z,22.20
2017-12-31T07:37:20.136Z,18.80
2017-12-31T07:38:20.132Z,23.40
2017-12-31T07:39:20.129Z,19.40
2017-12-31T07:40:20.123Z,21.90
2017-12-31T07:41:20.120Z,24.20
2017-12-31T07:42:20.115Z,26.00
2017-12-31T07:43:20.112Z,20.40
2017-12-31T07:44:20.110Z,25.50
2017-12-31T07:45:20.104Z,20.50
2017-12-31T07:46:20.100Z,23.30
2017-12-31T07:47:20.103Z,22.10
2017-12-31T07:48:20.091Z,20.90
2017-12-31T07:49:20.089Z,20.60
2017-12-31T07:50:20.081Z,22.30
2017-12-31T07:51:20.075Z,22.70
2017-12-31T07:52:20.075Z,19.40
2017-12-31T07:53:20.092Z,22.30
2017-12-31T07:54:20.069Z,21.90
2017-12-31T07:55:20.062Z,24.30
2017-12-31T07:56:20.057Z,19.00
2017-12-31T07:57:20.054Z,22.80
2017-12-31T07:58:20.050Z,19.90
2017-12-31T07:59:20.048Z,23.60
2017-12-31T08:00:20.042Z,21.60
2017-12-31T08:01:20.042Z,21.90
2017-12-31T08:02:20.033Z,25.80
2017-12-31T08:03:20.104Z,20.40
2017-12-31T08:04:20.029Z,20.70
2017-12-31T08:05:20.023Z,24.30
2017-12-31T08:06:20.020Z,24.10
2017-12-31T08:07:20.017Z,21.40
2017-12-31T08:08:20.013Z,24.80
2017-12-31T08:09:20.007Z,23.90
2017-12-31T08:10:19.997Z,24.20
2017-12-31T08:11:20.003Z,25.10
2017-12-31T08:12:19.994Z,22.70
2017-12-31T08:13:19.991Z,23.70
2017-12-31T08:14:19.991Z,22.60
2017-12-31T08:15:19.984Z,23.10
2017-12-31T08:16:19.987Z,22.90
2017-12-31T08:17:19.976Z,23.00
2017-12-31T08:18:19.978Z,24.90
2017-12-31T08:19:19.969Z,23.50
2017-12-31T08:20:19.963Z,24.10
2017-12-31T08:21:19.966Z,23.70
2017-12-31T08:22:19.958Z,25.20
2017-12-31T08:23:19.955Z,24.70
2017-12-31T08:24:19.955Z,21.40
2017-12-31T08:25:19.947Z,23.30
2017-12-31T08:26:19.950Z,26.40
2017-12-31T08:27:19.942Z,23.80
2017-12-31T08:28:19.939Z,24.80
2017-12-31T08:29:19.933Z,26.40
2017-12-31T08:30:19.926Z,22.50
2017-12-31T08:31:19.925Z,20.00
2017-12-31T08:32:19.924Z,22.10
2017-12-31T08:33:19.919Z,24.20
2017-12-31T08:34:19.917Z,23.30
2017-12-31T08:35:19.915Z,20.50
2017-12-31T08:36:19.908Z,24.40
2017-12-31T08:37:19.902Z,23.40
2017-12-31T08:38:19.901Z,23.60
2017-12-31T08:39:19.946Z,22.00
2017-12-31T08:40:19.895Z,21.20
2017-12-31T08:41:19.888Z,23.40
2017-12-31T08:42:19.885Z,22.70
2017-12-31T08:43:19.882Z,24.80
2017-12-31T08:44:19.887Z,25.70
2017-12-31T08:45:19.887Z,23.10
2017-12-31T08:46:19.870Z,21.50
2017-12-31T08:47:19.868Z,21.50
2017-12-31T08:48:19.868Z,19.90
2017-12-31T08:49:19.859Z,24.10
2017-12-31T08:50:19.855Z,22.10
2017-12-31T08:51:19.853Z,22.40
2017-12-31T08:52:19.851Z,22.00
2017-12-31T08:53:19.848Z,22.50
2017-12-31T08:54:19.842Z,20.80
2017-12-31T08:55:19.839Z,24.00
2017-12-31T08:56:19.842Z,21.80
2017-12-31T08:57:19.831Z,21.70
2017-12-31T08:58:19.828Z,23.20
2017-12-31T08:59:19.831Z,26.30
2017-12-31T09:00:19.821Z,21.30
2017-12-31T09:01:19.820Z,22.30
2017-12-31T09:02:19.814Z,22.10
2017-12-31T09:03:19.812Z,26.40
2017-12-31T09:04:19.808Z,21.60
2017-12-31T09:05:19.806Z,22.80
2017-12-31T09:06:19.801Z,23.00
2017-12-31T09:07:19.798Z,21.80
2017-12-31T09:08:19.794Z,23.80
2017-12-31T09:09:19.792Z,25.10
2017-12-31T09:10:19.789Z,23.60
2017-12-31T09:11:19.783Z,22.20
2017-12-31T09:12:19.781Z,24.50
2017-12-31T09:13:19.773Z,21.90
2017-12-31T09:14:19.776Z,21.90
2017-12-31T09:15:19.772Z,23.40
2017-12-31T09:16:19.776Z,22.50
2017-12-31T09:17:19.762Z,23.20
2017-12-31T09:18:19.761Z,25.10
2017-12-31T09:19:19.759Z,23.50
2017-12-31T09:20:19.755Z,26.80
2017-12-31T09:21:19.753Z,24.00
2017-12-31T09:22:19.747Z,23.00
2017-12-31T09:23:19.741Z,26.80
2017-12-31T09:24:19.741Z,24.60
2017-12-31T09:25:19.741Z,24.00
2017-12-31T09:26:19.783Z,30.10
2017-12-31T09:27:19.731Z,25.60
2017-12-31T09:28:19.731Z,25.10
2017-12-31T09:29:19.726Z,25.70
2017-12-31T09:30:19.721Z,29.50
2017-12-31T09:31:19.720Z,27.50
2017-12-31T09:32:19.717Z,25.60
2017-12-31T09:33:19.711Z,28.50
2017-12-31T09:34:19.709Z,27.80
2017-12-31T09:35:19.706Z,29.20
2017-12-31T09:36:19.704Z,29.10
2017-12-31T09:37:19.699Z,30.20
2017-12-31T09:38:19.696Z,32.20
2017-12-31T09:39:19.719Z,33.10
2017-12-31T09:40:19.728Z,34.90
2017-12-31T09:41:19.685Z,35.70
2017-12-31T09:42:19.687Z,32.70
2017-12-31T09:43:19.726Z,32.40
2017-12-31T09:44:19.679Z,32.40
2017-12-31T09:45:19.673Z,32.60
2017-12-31T09:46:19.677Z,34.90
2017-12-31T09:47:19.668Z,36.10
2017-12-31T09:48:19.664Z,37.40
2017-12-31T09:49:19.659Z,33.00
2017-12-31T09:50:19.659Z,36.80
2017-12-31T09:51:19.655Z,40.00
2017-12-31T09:52:19.653Z,38.50
2017-12-31T09:53:19.647Z,37.60
2017-12-31T09:54:19.640Z,43.60
2017-12-31T09:55:19.643Z,38.40
2017-12-31T09:56:19.638Z,45.40
2017-12-31T09:57:19.633Z,41.10
2017-12-31T09:58:19.631Z,39.60
2017-12-31T09:59:19.661Z,46.90
2017-12-31T10:00:19.630Z,44.70
2017-12-31T10:01:19.619Z,37.20
2017-12-31T10:02:19.618Z,42.90
2017-12-31T10:03:19.613Z,41.00
2017-12-31T10:04:19.613Z,42.10
2017-12-31T10:05:19.612Z,41.00
2017-12-31T10:06:19.621Z,40.80
2017-12-31T10:07:19.602Z,41.00
2017-12-31T10:08:19.598Z,39.00
2017-12-31T10:09:19.594Z,46.60
2017-12-31T10:10:19.594Z,36.50
2017-12-31T10:11:19.591Z,41.40
2017-12-31T10:12:19.585Z,43.30
2017-12-31T10:13:19.583Z,43.60
2017-12-31T10:14:19.584Z,44.80
2017-12-31T10:15:19.578Z,48.10
2017-12-31T10:16:19.576Z,39.90
2017-12-31T10:17:19.572Z,44.70
2017-12-31T10:18:19.569Z,43.70
2017-12-31T10:19:19.564Z,41.60
2017-12-31T10:20:19.560Z,44.40
2017-12-31T10:21:19.569Z,44.60
2017-12-31T10:22:19.556Z,44.80
2017-12-31T10:23:19.551Z,48.70
2017-12-31T10:24:19.549Z,51.40
2017-12-31T10:25:19.544Z,46.90
2017-12-31T10:26:19.541Z,45.10
2017-12-31T10:27:19.539Z,45.70
2017-12-31T10:28:19.547Z,52.20
2017-12-31T10:29:19.531Z,45.90
2017-12-31T10:30:19.532Z,47.30
2017-12-31T10:31:19.526Z,44.90
2017-12-31T10:32:19.523Z,50.40
2017-12-31T10:33:19.520Z,49.70
2017-12-31T10:34:19.515Z,52.90
2017-12-31T10:35:19.510Z,51.50
2017-12-31T10:36:19.514Z,51.80
2017-12-31T10:37:19.507Z,48.90
2017-12-31T10:38:19.513Z,48.50
2017-12-31T10:39:19.500Z,41.50
2017-12-31T10:40:19.499Z,45.50
2017-12-31T10:41:19.495Z,53.60
2017-12-31T10:42:19.493Z,51.90
2017-12-31T10:43:19.491Z,47.40
2017-12-31T10:44:19.487Z,54.70
2017-12-31T10:45:19.482Z,55.70
2017-12-31T10:46:19.476Z,49.20
2017-12-31T10:47:19.476Z,52.70
2017-12-31T10:48:19.472Z,49.20
2017-12-31T10:49:19.472Z,48.40
2017-12-31T10:50:19.467Z,39.50
2017-12-31T10:51:19.464Z,42.90
2017-12-31T10:52:19.460Z,50.10
2017-12-31T10:53:19.457Z,43.10
2017-12-31T10:54:19.454Z,49.60
2017-12-31T10:55:19.453Z,42.80
2017-12-31T10:56:19.450Z,48.10
2017-12-31T10:57:19.450Z,48.90
2017-12-31T10:58:19.442Z,44.80
2017-12-31T10:59:19.441Z,43.20
2017-12-31T11:00:19.436Z,37.40
2017-12-31T11:01:19.433Z,41.30
2017-12-31T11:02:19.430Z,42.20
2017-12-31T11:03:19.473Z,44.60
2017-12-31T11:04:19.424Z,38.80
2017-12-31T11:05:19.422Z,41.80
2017-12-31T11:06:19.419Z,33.40
2017-12-31T11:07:19.415Z,33.20
2017-12-31T11:08:19.414Z,37.60
2017-12-31T11:09:19.409Z,35.40
2017-12-31T11:10:19.407Z,35.50
2017-12-31T11:11:19.407Z,31.80
2017-12-31T11:12:19.400Z,33.90
2017-12-31T11:13:19.396Z,36.20
2017-12-31T11:14:19.394Z,35.10
2017-12-31T11:15:19.392Z,39.40
2017-12-31T11:16:19.392Z,37.80
2017-12-31T11:17:19.385Z,36.40
2017-12-31T11:18:19.383Z,33.60
2017-12-31T11:19:19.378Z,29.10
2017-12-31T11:20:19.382Z,30.30
2017-12-31T11:21:19.374Z,32.30
2017-12-31T11:22:19.370Z,34.80
2017-12-31T11:23:19.371Z,36.10
2017-12-31T11:24:19.364Z,34.10
2017-12-31T11:25:19.359Z,33.70
2017-12-31T11:26:19.359Z,34.00
2017-12-31T11:27:19.355Z,33.40
2017-12-31T11:28:19.352Z,31.60
2017-12-31T11:29:19.349Z,36.10
2017-12-31T11:30:19.348Z,32.70
2017-12-31T11:31:19.343Z,30.10
2017-12-31T11:32:19.341Z,34.10
2017-12-31T11:33:19.338Z,37.10
2017-12-31T11:34:19.337Z,30.30
2017-12-31T11:35:19.332Z,31.50
2017-12-31T11:36:19.329Z,31.20
2017-12-31T11:37:19.325Z,29.60
2017-12-31T11:38:19.323Z,30.50
2017-12-31T11:39:19.318Z,28.90
2017-12-31T11:40:19.324Z,31.80
2017-12-31T11:41:19.314Z,32.30
2017-12-31T11:42:19.311Z,34.50
2017-12-31T11:43:19.310Z,32.10
2017-12-31T11:44:19.307Z,28.20
2017-12-31T11:45:19.308Z,29.80
2017-12-31T11:46:19.304Z,29.60
2017-12-31T11:47:19.301Z,29.70
2017-12-31T11:48:19.298Z,32.80
2017-12-31T11:49:19.293Z,34.20
2017-12-31T11:50:19.292Z,35.10
2017-12-31T11:51:19.293Z,31.40
2017-12-31T11:52:19.287Z,34.50
2017-12-31T11:53:19.283Z,30.60
2017-12-31T11:54:19.282Z,25.80
2017-12-31T11:55:19.279Z,30.50
2017-12-31T11:56:19.278Z,27.50
2017-12-31T11:57:19.280Z,28.40
2017-12-31T11:58:19.270Z,27.90
2017-12-31T11:59:19.268Z,25.40
2017-12-31T12:00:19.267Z,27.80
2017-12-31T12:01:19.266Z,26.60
2017-12-31T12:02:19.261Z,27.60
2017-12-31T12:03:19.261Z,30.30
2017-12-31T12:04:19.255Z,27.40
2017-12-31T12:05:19.251Z,28.10
2017-12-31T12:06:19.251Z,30.40
2017-12-31T12:07:19.253Z,23.80
2017-12-31T12:08:19.245Z,24.40
2017-12-31T12:09:19.242Z,24.50
2017-12-31T12:10:19.244Z,23.70
2017-12-31T12:11:19.237Z,19.00
2017-12-31T12:12:19.235Z,20.40
2017-12-31T12:13:19.234Z,24.40
2017-12-31T12:14:19.234Z,23.80
2017-12-31T12:15:19.233Z,25.70
2017-12-31T12:16:19.227Z,22.90
2017-12-31T12:17:19.228Z,22.00
2017-12-31T12:18:19.222Z,20.90
2017-12-31T12:19:19.217Z,20.30
2017-12-31T12:20:19.242Z,18.20
2017-12-31T12:21:19.213Z,18.60
2017-12-31T12:22:19.208Z,20.50
2017-12-31T12:23:19.206Z,22.10
2017-12-31T12:24:19.208Z,18.60
2017-12-31T12:25:19.204Z,19.20
2017-12-31T12:26:19.205Z,22.50
2017-12-31T12:27:19.231Z,12.60
2017-12-31T12:28:19.199Z,12.90
2017-12-31T12:29:19.196Z,14.50
2017-12-31T12:30:19.194Z,18.20
2017-12-31T12:31:19.189Z,13.60
2017-12-31T12:32:19.189Z,16.20
2017-12-31T12:33:19.186Z,15.80
2017-12-31T12:34:19.185Z,14.30
2017-12-31T12:35:19.181Z,19.00
2017-12-31T12:36:19.187Z,20.90
2017-12-31T12:37:19.176Z,13.40
2017-12-31T12:38:19.175Z,13.80
2017-12-31T12:39:19.178Z,17.20
2017-12-31T12:40:19.174Z,15.50
2017-12-31T12:41:19.170Z,14.60
2017-12-31T12:42:19.173Z,14.10
2017-12-31T12:43:19.166Z,12.50
2017-12-31T12:44:19.165Z,14.50
2017-12-31T12:45:19.160Z,13.50
2017-12-31T12:46:19.160Z,11.90
2017-12-31T12:47:19.159Z,13.30
2017-12-31T12:48:19.157Z,12.10
2017-12-31T12:49:19.155Z,15.80
2017-12-31T12:50:19.153Z,13.70
2017-12-31T12:51:19.151Z,11.70
2017-12-31T12:52:19.149Z,14.10
2017-12-31T12:53:19.146Z,14.80
2017-12-31T12:54:19.144Z,12.20
2017-12-31T12:55:19.185Z,13.00